createdAt,value
2022-10-31T00:01:25.068Z,14.74
2022-10-31T00:03:53.435Z,14.75
2022-10-31T00:06:20.294Z,14.75
2022-10-31T00:08:54.698Z,14.75
2022-10-31T00:11:22.293Z,14.75
2022-10-31T00:13:49.218Z,14.75
2022-10-31T00:16:22.266Z,14.76
2022-10-31T00:18:54.113Z,14.75
2022-10-31T00:21:21.901Z,14.74
2022-10-31T00:23:49.247Z,14.73
2022-10-31T00:26:16.699Z,14.69
2022-10-31T00:28:43.680Z,14.68
2022-10-31T00:31:12.702Z,14.69
2022-10-31T00:33:41.107Z,14.66
2022-10-31T00:36:11.452Z,14.58
2022-10-31T00:38:39.762Z,14.56
2022-10-31T00:41:06.724Z,14.54
2022-10-31T00:43:33.642Z,14.52
2022-10-31T00:46:00.633Z,14.44
2022-10-31T00:48:27.611Z,14.39
2022-10-31T00:50:54.552Z,14.37
2022-10-31T00:53:21.802Z,14.32
2022-10-31T00:55:48.786Z,14.32
2022-10-31T00:58:15.789Z,14.33
2022-10-31T01:00:44.613Z,14.35
2022-10-31T01:03:13.835Z,14.38
2022-10-31T01:05:41.971Z,14.41
2022-10-31T01:08:09.382Z,14.47
2022-10-31T01:10:36.382Z,14.48
2022-10-31T01:13:03.329Z,14.50
2022-10-31T01:15:30.326Z,14.53
2022-10-31T01:17:57.369Z,14.51
2022-10-31T01:20:24.582Z,14.55
2022-10-31T01:22:51.522Z,14.52
2022-10-31T01:25:18.562Z,14.50
2022-10-31T01:27:45.722Z,14.52
2022-10-31T01:30:13.263Z,14.52
2022-10-31T01:32:40.206Z,14.51
2022-10-31T01:35:07.382Z,14.47
2022-10-31T01:37:34.353Z,14.45
2022-10-31T01:40:01.402Z,14.43
2022-10-31T01:42:28.332Z,14.36
2022-10-31T01:45:02.185Z,14.31
2022-10-31T01:47:46.154Z,14.28
2022-10-31T01:50:35.490Z,14.26
2022-10-31T01:53:03.475Z,14.24
2022-10-31T01:55:42.663Z,14.17
2022-10-31T01:58:14.426Z,14.18
2022-10-31T02:00:45.571Z,14.19
2022-10-31T02:03:13.043Z,14.18
2022-10-31T02:05:40.442Z,14.18
2022-10-31T02:08:31.235Z,14.19
2022-10-31T02:10:59.646Z,14.18
2022-10-31T02:13:27.528Z,14.17
2022-10-31T02:15:57.663Z,14.14
2022-10-31T02:18:27.393Z,14.12
2022-10-31T02:21:20.975Z,14.04
2022-10-31T02:24:34.403Z,14.01
2022-10-31T02:27:07.440Z,13.95
2022-10-31T02:30:02.462Z,13.95
2022-10-31T02:32:54.622Z,13.92
2022-10-31T02:35:51.624Z,13.91
2022-10-31T02:38:52.853Z,13.94
2022-10-31T02:41:48.375Z,13.92
2022-10-31T02:44:29.513Z,13.97
2022-10-31T02:47:05.661Z,14.01
2022-10-31T02:49:41.384Z,14.07
2022-10-31T02:52:25.444Z,14.10
2022-10-31T02:54:53.602Z,14.12
2022-10-31T02:57:26.583Z,14.13
2022-10-31T03:00:02.911Z,14.12
2022-10-31T03:02:51.153Z,14.11
2022-10-31T03:05:25.210Z,14.10
2022-10-31T03:08:17.024Z,14.03
2022-10-31T03:10:49.883Z,14.01
2022-10-31T03:13:27.364Z,14.02
2022-10-31T03:16:04.983Z,13.98
2022-10-31T03:18:43.844Z,13.90
2022-10-31T03:21:18.342Z,13.88
2022-10-31T03:23:47.814Z,13.86
2022-10-31T03:26:22.413Z,13.84
2022-10-31T03:29:01.174Z,13.82
2022-10-31T03:31:34.303Z,13.83
2022-10-31T03:34:03.714Z,13.82
2022-10-31T03:36:36.447Z,13.81
2022-10-31T03:39:07.322Z,13.77
2022-10-31T03:41:42.362Z,13.76
2022-10-31T03:44:14.803Z,13.74
2022-10-31T03:46:44.110Z,13.73
2022-10-31T03:49:12.065Z,13.74
2022-10-31T03:51:58.763Z,13.73
2022-10-31T03:54:35.200Z,13.75
2022-10-31T03:57:25.452Z,13.70
2022-10-31T04:00:07.433Z,13.72
2022-10-31T04:03:02.961Z,13.68
2022-10-31T04:05:33.383Z,13.70
2022-10-31T04:08:05.943Z,13.72
2022-10-31T04:10:35.672Z,13.73
2022-10-31T04:13:14.796Z,13.73
2022-10-31T04:15:55.774Z,13.71
2022-10-31T04:18:24.834Z,13.70
2022-10-31T04:21:04.917Z,13.70
2022-10-31T04:23:32.562Z,13.69
2022-10-31T04:26:01.493Z,13.63
2022-10-31T04:28:30.216Z,13.60
2022-10-31T04:30:57.832Z,13.60
2022-10-31T04:33:24.953Z,13.56
2022-10-31T04:35:51.992Z,13.55
2022-10-31T04:38:19.133Z,13.50
2022-10-31T04:40:47.058Z,13.45
2022-10-31T04:43:32.855Z,13.43
2022-10-31T04:46:01.718Z,13.40
2022-10-31T04:48:28.813Z,13.39
2022-10-31T04:51:01.434Z,13.38
2022-10-31T04:53:29.193Z,13.38
2022-10-31T04:56:23.513Z,13.31
2022-10-31T04:58:56.572Z,13.29
2022-10-31T05:01:25.458Z,13.31
2022-10-31T05:03:52.589Z,13.25
2022-10-31T05:06:19.654Z,13.27
2022-10-31T05:08:47.272Z,13.28
2022-10-31T05:11:15.612Z,13.36
2022-10-31T05:13:44.587Z,13.45
2022-10-31T05:16:14.436Z,13.48
2022-10-31T05:18:59.773Z,13.51
2022-10-31T05:21:45.224Z,13.56
2022-10-31T05:24:12.479Z,13.62
2022-10-31T05:26:41.502Z,13.60
2022-10-31T05:29:10.264Z,13.63
2022-10-31T05:31:38.464Z,13.63
2022-10-31T05:34:08.285Z,13.67
2022-10-31T05:36:53.883Z,13.59
2022-10-31T05:39:24.059Z,13.49
2022-10-31T05:41:55.793Z,13.46
2022-10-31T05:44:26.835Z,13.41
2022-10-31T05:47:26.587Z,13.33
2022-10-31T05:49:56.431Z,13.25
2022-10-31T05:52:41.903Z,13.21
2022-10-31T05:55:19.569Z,13.20
2022-10-31T05:58:04.056Z,13.15
2022-10-31T06:00:32.786Z,13.12
2022-10-31T06:05:58.086Z,13.04
2022-10-31T06:08:30.505Z,13.02
2022-10-31T06:11:01.315Z,13.02
2022-10-31T06:13:50.943Z,13.02
2022-10-31T06:16:25.232Z,13.09
2022-10-31T06:18:54.865Z,13.13
2022-10-31T06:21:22.065Z,13.15
2022-10-31T06:23:51.503Z,13.18
2022-10-31T06:26:38.524Z,13.23
2022-10-31T06:29:05.646Z,13.28
2022-10-31T06:31:53.245Z,13.36
2022-10-31T06:34:20.407Z,13.40
2022-10-31T06:36:48.700Z,13.50
2022-10-31T06:39:16.647Z,13.53
2022-10-31T06:41:43.943Z,13.59
2022-10-31T06:44:11.566Z,13.66
2022-10-31T06:47:08.204Z,13.71
2022-10-31T06:49:35.224Z,13.78
2022-10-31T06:52:06.173Z,13.86
2022-10-31T06:54:33.325Z,13.88
2022-10-31T06:57:00.310Z,13.96
2022-10-31T06:59:28.443Z,14.02
2022-10-31T07:02:11.435Z,14.08
2022-10-31T07:04:40.145Z,14.13
2022-10-31T07:07:08.171Z,14.13
2022-10-31T07:09:36.908Z,14.27
2022-10-31T07:12:05.248Z,14.27
2022-10-31T07:14:36.185Z,14.37
2022-10-31T07:17:03.444Z,14.44
2022-10-31T07:19:37.866Z,14.49
2022-10-31T07:22:05.027Z,14.49
2022-10-31T07:24:33.034Z,14.45
2022-10-31T07:27:18.606Z,14.42
2022-10-31T07:29:48.363Z,14.38
2022-10-31T07:32:16.405Z,14.36
2022-10-31T07:34:51.057Z,14.26
2022-10-31T07:37:21.587Z,14.27
2022-10-31T07:39:48.907Z,14.23
2022-10-31T07:42:16.792Z,14.12
2022-10-31T07:44:45.794Z,14.18
2022-10-31T07:47:53.026Z,14.21
2022-10-31T07:50:38.485Z,14.14
2022-10-31T07:53:24.253Z,14.07
2022-10-31T07:55:59.587Z,14.01
2022-10-31T07:58:30.271Z,14.04
2022-10-31T08:00:59.905Z,14.06
2022-10-31T08:03:35.090Z,14.02
2022-10-31T08:06:20.903Z,13.96
2022-10-31T08:09:08.223Z,13.93
2022-10-31T08:11:35.343Z,13.91
2022-10-31T08:14:03.144Z,13.91
2022-10-31T08:16:30.249Z,13.92
2022-10-31T08:19:01.427Z,14.01
2022-10-31T08:21:30.547Z,14.02
2022-10-31T08:24:03.172Z,14.09
2022-10-31T08:26:30.445Z,14.08
2022-10-31T08:28:58.694Z,14.23
2022-10-31T08:31:33.491Z,14.26
2022-10-31T08:34:20.626Z,14.40
2022-10-31T08:37:06.568Z,14.46
2022-10-31T08:39:40.247Z,14.55
2022-10-31T08:42:07.486Z,14.64
2022-10-31T08:44:34.506Z,14.76
2022-10-31T08:47:01.627Z,14.87
2022-10-31T08:49:32.425Z,14.96
2022-10-31T08:51:59.507Z,15.05
2022-10-31T08:54:31.263Z,15.17
2022-10-31T08:56:58.290Z,15.26
2022-10-31T08:59:35.612Z,15.38
2022-10-31T09:02:23.027Z,15.50
2022-10-31T09:04:53.326Z,15.65
2022-10-31T09:07:21.207Z,15.74
2022-10-31T09:09:49.110Z,15.90
2022-10-31T09:12:17.902Z,15.96
2022-10-31T09:15:03.905Z,16.08
2022-10-31T09:17:54.043Z,16.31
2022-10-31T09:20:35.935Z,16.48
2022-10-31T09:23:12.327Z,16.63
2022-10-31T09:25:40.605Z,16.78
2022-10-31T09:28:27.567Z,16.90
2022-10-31T09:30:58.364Z,17.05
2022-10-31T09:33:44.011Z,17.22
2022-10-31T09:36:40.825Z,17.38
2022-10-31T09:39:12.483Z,17.48
2022-10-31T09:42:13.464Z,17.66
2022-10-31T09:44:46.661Z,17.79
2022-10-31T09:47:28.284Z,17.93
2022-10-31T09:50:27.449Z,18.14
2022-10-31T09:53:21.326Z,18.25
2022-10-31T09:55:51.429Z,18.49
2022-10-31T09:58:24.805Z,18.63
2022-10-31T10:00:53.336Z,18.75
2022-10-31T10:03:34.173Z,18.85
2022-10-31T10:06:10.751Z,18.86
2022-10-31T10:08:58.292Z,19.24
2022-10-31T10:12:10.185Z,19.40
2022-10-31T10:14:47.967Z,19.61
2022-10-31T10:17:36.304Z,19.87
2022-10-31T10:20:12.704Z,19.98
2022-10-31T10:23:03.294Z,20.24
2022-10-31T10:25:41.466Z,20.53
2022-10-31T10:28:22.664Z,20.82
2022-10-31T10:30:55.870Z,21.01
2022-10-31T10:33:31.244Z,21.20
2022-10-31T10:36:05.622Z,21.31
2022-10-31T10:38:53.767Z,21.53
2022-10-31T10:41:23.609Z,21.68
2022-10-31T10:43:52.235Z,21.82
2022-10-31T10:46:58.349Z,21.96
2022-10-31T10:49:41.235Z,21.97
2022-10-31T10:52:42.078Z,22.07
2022-10-31T10:55:35.164Z,22.17
2022-10-31T10:58:05.731Z,22.20
2022-10-31T11:00:39.681Z,22.28
2022-10-31T11:03:07.557Z,22.31
2022-10-31T11:05:53.451Z,22.51
2022-10-31T11:08:37.670Z,22.82
2022-10-31T11:11:09.386Z,23.08
2022-10-31T11:13:37.525Z,23.25
2022-10-31T11:16:07.643Z,23.40
2022-10-31T11:18:39.387Z,23.71
2022-10-31T11:21:07.087Z,23.83
2022-10-31T11:23:34.591Z,23.91
2022-10-31T11:26:06.417Z,24.14
2022-10-31T11:28:36.186Z,24.24
2022-10-31T11:31:13.596Z,24.37
2022-10-31T11:33:48.575Z,24.32
2022-10-31T11:36:26.927Z,24.56
2022-10-31T11:38:55.374Z,24.65
2022-10-31T11:41:33.114Z,24.81
2022-10-31T11:44:19.715Z,24.91
2022-10-31T11:46:51.516Z,24.88
2022-10-31T11:49:18.413Z,25.10
2022-10-31T11:51:50.800Z,25.21
2022-10-31T11:54:27.035Z,25.20
2022-10-31T11:56:54.138Z,25.15
2022-10-31T11:59:29.875Z,25.16
2022-10-31T12:13:36.774Z,24.70
2022-10-31T12:16:34.702Z,24.77
2022-10-31T12:19:17.974Z,24.88
2022-10-31T12:21:58.854Z,25.05
2022-10-31T12:24:50.146Z,25.20
2022-10-31T12:27:41.835Z,25.40
2022-10-31T12:30:18.436Z,25.45
2022-10-31T12:33:06.475Z,25.36
2022-10-31T12:35:56.194Z,25.51
2022-10-31T12:38:31.701Z,25.78
2022-10-31T12:41:21.485Z,26.01
2022-10-31T12:44:02.959Z,26.72
2022-10-31T12:46:55.615Z,27.38
2022-10-31T12:49:40.564Z,28.15
2022-10-31T12:52:14.676Z,28.86
2022-10-31T12:55:18.077Z,29.26
2022-10-31T12:57:52.244Z,30.08
2022-10-31T13:00:22.074Z,30.48
2022-10-31T13:03:01.730Z,31.19
2022-10-31T13:05:33.922Z,31.80
2022-10-31T13:08:13.116Z,32.30
2022-10-31T13:11:15.116Z,32.65
2022-10-31T13:13:59.676Z,32.95
2022-10-31T13:16:31.959Z,33.26
2022-10-31T13:19:06.186Z,33.51
2022-10-31T13:21:54.454Z,33.57
2022-10-31T13:24:29.156Z,33.52
2022-10-31T13:26:59.717Z,33.65
2022-10-31T13:29:34.408Z,33.44
2022-10-31T13:32:06.156Z,32.47
2022-10-31T13:34:49.100Z,31.30
2022-10-31T13:37:32.819Z,29.98
2022-10-31T13:40:24.965Z,28.96
2022-10-31T13:43:06.326Z,27.72
2022-10-31T13:45:33.335Z,27.07
2022-10-31T13:48:21.616Z,26.32
2022-10-31T13:51:01.057Z,25.59
2022-10-31T13:53:43.255Z,24.93
2022-10-31T13:56:10.229Z,24.37
2022-10-31T13:58:37.872Z,23.88
2022-10-31T14:01:14.466Z,23.35
2022-10-31T14:06:53.279Z,22.52
2022-10-31T14:09:37.236Z,22.22
2022-10-31T14:12:25.135Z,21.77
2022-10-31T14:14:56.474Z,21.49
2022-10-31T14:17:28.895Z,21.24
2022-10-31T14:20:19.166Z,20.99
2022-10-31T14:22:46.359Z,20.76
2022-10-31T14:25:36.773Z,20.57
2022-10-31T14:28:21.525Z,20.27
2022-10-31T14:30:57.884Z,20.19
2022-10-31T14:33:28.415Z,20.09
2022-10-31T14:36:20.156Z,19.92
2022-10-31T14:39:19.705Z,19.81
2022-10-31T14:42:08.454Z,19.70
2022-10-31T14:44:53.675Z,19.54
2022-10-31T14:47:38.373Z,19.45
2022-10-31T14:50:05.435Z,19.47
2022-10-31T14:52:33.546Z,19.43
2022-10-31T14:55:02.243Z,19.31
2022-10-31T14:57:39.617Z,19.17
2022-10-31T15:00:09.639Z,19.10
2022-10-31T15:02:49.514Z,19.02
2022-10-31T15:05:18.200Z,18.90
2022-10-31T15:07:57.109Z,18.67
2022-10-31T15:10:46.983Z,18.45
2022-10-31T15:13:22.775Z,18.28
2022-10-31T15:15:54.185Z,18.25
2022-10-31T15:18:27.384Z,18.13
2022-10-31T15:20:56.774Z,18.09
2022-10-31T15:23:30.078Z,18.00
2022-10-31T15:26:02.065Z,17.83
2022-10-31T15:28:29.874Z,17.74
2022-10-31T15:30:58.314Z,17.67
2022-10-31T15:33:31.263Z,17.56
2022-10-31T15:36:04.175Z,17.43
2022-10-31T15:38:31.336Z,17.28
2022-10-31T15:41:03.085Z,17.18
2022-10-31T15:43:39.885Z,17.14
2022-10-31T15:46:09.976Z,17.09
2022-10-31T15:48:37.064Z,17.01
2022-10-31T15:51:04.526Z,16.82
2022-10-31T15:53:55.734Z,16.78
2022-10-31T15:56:31.916Z,16.67
2022-10-31T15:59:01.464Z,16.60
2022-10-31T16:01:31.314Z,16.51
2022-10-31T16:04:05.037Z,16.44
2022-10-31T16:06:34.537Z,16.40
2022-10-31T16:09:01.906Z,16.31
2022-10-31T16:11:37.620Z,16.24
2022-10-31T16:14:23.180Z,16.15
2022-10-31T16:16:53.714Z,16.07
2022-10-31T16:19:24.243Z,16.05
2022-10-31T16:22:02.614Z,15.98
2022-10-31T16:24:36.193Z,15.91
2022-10-31T16:27:15.415Z,15.84
2022-10-31T16:29:47.852Z,15.74
2022-10-31T16:32:28.277Z,15.69
2022-10-31T16:35:10.955Z,15.61
2022-10-31T16:37:44.714Z,15.51
2022-10-31T16:40:14.461Z,15.44
2022-10-31T16:42:42.843Z,15.33
2022-10-31T16:45:18.037Z,15.29
2022-10-31T16:47:45.478Z,15.19
2022-10-31T16:50:19.895Z,15.08
2022-10-31T16:55:37.943Z,14.80
2022-10-31T16:58:05.414Z,14.75
2022-10-31T17:00:32.337Z,14.68
2022-10-31T17:02:59.515Z,14.63
2022-10-31T17:05:33.755Z,14.62
2022-10-31T17:08:01.001Z,14.56
2022-10-31T17:10:28.519Z,14.55
2022-10-31T17:12:58.242Z,14.52
2022-10-31T17:15:27.994Z,14.49
2022-10-31T17:17:55.754Z,14.40
2022-10-31T17:20:25.814Z,14.35
2022-10-31T17:22:53.275Z,14.32
2022-10-31T17:25:23.475Z,14.28
2022-10-31T17:27:51.506Z,14.24
2022-10-31T17:30:20.245Z,14.20
2022-10-31T17:32:48.104Z,14.18
2022-10-31T17:35:16.195Z,14.18
2022-10-31T17:37:44.794Z,14.16
2022-10-31T17:40:14.734Z,14.15
2022-10-31T17:42:41.896Z,14.09
2022-10-31T17:45:09.664Z,14.11
2022-10-31T17:47:36.717Z,14.04
2022-10-31T17:50:03.903Z,13.98
2022-10-31T17:52:31.042Z,14.01
2022-10-31T17:54:58.035Z,13.99
2022-10-31T17:57:25.215Z,13.96
2022-10-31T17:59:52.136Z,13.89
2022-10-31T18:02:19.209Z,13.83
2022-10-31T18:04:46.476Z,13.85
2022-10-31T18:07:19.657Z,13.86
2022-10-31T18:09:50.015Z,13.76
2022-10-31T18:12:17.215Z,13.76
2022-10-31T18:14:48.319Z,13.74
2022-10-31T18:17:15.744Z,13.73
2022-10-31T18:19:42.673Z,13.72
2022-10-31T18:22:09.574Z,13.72
2022-10-31T18:24:36.655Z,13.62
2022-10-31T18:27:03.936Z,13.63
2022-10-31T18:29:30.997Z,13.60
2022-10-31T18:31:58.336Z,13.58
2022-10-31T18:34:25.450Z,13.58
2022-10-31T18:36:52.857Z,13.58
2022-10-31T18:39:19.893Z,13.55
2022-10-31T18:41:46.795Z,13.61
2022-10-31T18:44:13.935Z,13.55
2022-10-31T18:46:41.025Z,13.52
2022-10-31T18:49:08.412Z,13.52
2022-10-31T18:51:35.505Z,13.52
2022-10-31T18:54:03.033Z,13.53
2022-10-31T18:56:31.956Z,13.45
2022-10-31T18:59:03.428Z,13.47
2022-10-31T19:01:31.040Z,13.42
2022-10-31T19:03:59.997Z,13.40
2022-10-31T19:06:28.013Z,13.39
2022-10-31T19:09:04.294Z,13.35
2022-10-31T19:11:35.885Z,13.37
2022-10-31T19:14:04.075Z,13.31
2022-10-31T19:16:32.035Z,13.33
2022-10-31T19:19:00.355Z,13.26
2022-10-31T19:21:28.205Z,13.27
2022-10-31T19:23:56.570Z,13.19
2022-10-31T19:26:24.984Z,13.18
2022-10-31T19:28:52.538Z,13.18
2022-10-31T19:31:19.834Z,13.18
2022-10-31T19:33:48.488Z,13.20
2022-10-31T19:36:18.695Z,13.21
2022-10-31T19:38:48.224Z,13.24
2022-10-31T19:41:21.186Z,13.24
2022-10-31T19:43:48.615Z,13.28
2022-10-31T19:46:22.671Z,13.28
2022-10-31T19:48:55.513Z,13.29
2022-10-31T19:51:22.940Z,13.33
2022-10-31T19:53:50.297Z,13.30
2022-10-31T19:56:20.104Z,13.28
2022-10-31T19:58:47.916Z,13.28
2022-10-31T20:01:23.612Z,13.24
2022-10-31T20:03:51.198Z,13.31
2022-10-31T20:06:34.475Z,13.28
2022-10-31T20:09:05.735Z,13.31
2022-10-31T20:11:32.758Z,13.27
2022-10-31T20:14:00.244Z,13.25
2022-10-31T20:16:27.897Z,13.25
2022-10-31T20:18:56.962Z,13.22
2022-10-31T20:21:26.935Z,13.25
2022-10-31T20:23:58.636Z,13.25
2022-10-31T20:26:27.034Z,13.22
2022-10-31T20:28:56.874Z,13.23
2022-10-31T20:31:26.845Z,13.22
2022-10-31T20:33:54.534Z,13.17
2022-10-31T20:36:23.135Z,13.15
2022-10-31T20:38:51.696Z,13.16
2022-10-31T20:41:19.287Z,13.14
2022-10-31T20:43:46.696Z,13.16
2022-10-31T20:46:14.855Z,13.10
2022-10-31T20:48:42.494Z,13.08
2022-10-31T20:51:21.755Z,13.08
2022-10-31T20:53:50.495Z,13.05
2022-10-31T20:56:20.056Z,13.01
2022-10-31T20:58:47.857Z,12.94
2022-10-31T21:01:18.223Z,12.93
2022-10-31T21:03:45.895Z,12.95
2022-10-31T21:06:13.275Z,12.96
2022-10-31T21:08:40.741Z,12.93
2022-10-31T21:11:13.135Z,12.89
2022-10-31T21:13:41.870Z,12.91
2022-10-31T21:16:12.054Z,12.87
2022-10-31T21:18:40.857Z,12.81
2022-10-31T21:21:14.544Z,12.81
2022-10-31T21:23:43.357Z,12.78
2022-10-31T21:26:21.347Z,12.78
2022-10-31T21:28:48.644Z,12.78
2022-10-31T21:31:17.704Z,12.77
2022-10-31T21:33:45.755Z,12.72
2022-10-31T21:36:13.404Z,12.73
2022-10-31T21:38:40.893Z,12.66
2022-10-31T21:41:14.074Z,12.71
2022-10-31T21:43:47.445Z,12.69
2022-10-31T21:46:20.177Z,12.72
2022-10-31T21:48:47.805Z,12.69
2022-10-31T21:51:20.545Z,12.68
2022-10-31T21:54:07.154Z,12.65
2022-10-31T21:56:34.324Z,12.68
2022-10-31T21:59:01.900Z,12.66
2022-10-31T22:01:29.894Z,12.63
2022-10-31T22:03:58.207Z,12.62
2022-10-31T22:06:26.934Z,12.66
2022-10-31T22:08:59.286Z,12.60
2022-10-31T22:11:28.624Z,12.67
2022-10-31T22:13:57.317Z,12.65
2022-10-31T22:16:25.835Z,12.65
2022-10-31T22:18:54.570Z,12.70
2022-10-31T22:21:26.514Z,12.68
2022-10-31T22:23:56.014Z,12.63
2022-10-31T22:26:23.802Z,12.66
2022-10-31T22:28:53.718Z,12.65
2022-10-31T22:31:22.837Z,12.63
2022-10-31T22:33:50.863Z,12.63
2022-10-31T22:36:20.436Z,12.62
2022-10-31T22:38:48.156Z,12.62
2022-10-31T22:41:18.055Z,12.58
2022-10-31T22:43:45.597Z,12.55
2022-10-31T22:46:16.164Z,12.53
2022-10-31T22:48:47.000Z,12.53
2022-10-31T22:51:15.464Z,12.55
2022-10-31T22:53:43.016Z,12.47
2022-10-31T22:56:12.026Z,12.49
2022-10-31T22:58:39.005Z,12.48
2022-10-31T23:01:26.967Z,12.45
2022-10-31T23:03:54.124Z,12.42
2022-10-31T23:06:24.014Z,12.40
2022-10-31T23:08:52.066Z,12.35
2022-10-31T23:11:33.453Z,12.34
2022-10-31T23:14:15.837Z,12.23
2022-10-31T23:16:44.104Z,12.30
2022-10-31T23:19:12.475Z,12.33
2022-10-31T23:21:57.620Z,12.28
2022-10-31T23:24:47.585Z,12.30
2022-10-31T23:27:23.404Z,12.29
2022-10-31T23:29:55.558Z,12.28
2022-10-31T23:32:27.235Z,12.26
2022-10-31T23:34:56.894Z,12.23
2022-10-31T23:37:26.356Z,12.24
2022-10-31T23:39:53.788Z,12.26
2022-10-31T23:42:21.436Z,12.22
2022-10-31T23:44:48.715Z,12.21
2022-10-31T23:47:16.912Z,12.17
2022-10-31T23:49:44.119Z,12.21
2022-10-31T23:52:12.105Z,12.17
2022-10-31T23:54:39.294Z,12.16
2022-10-31T23:57:06.576Z,12.16
2022-10-31T23:59:33.753Z,12.13
